createdAt,value
2019-05-05T00:00:56.324Z,4.18
2019-05-05T00:01:56.343Z,4.24
2019-05-05T00:02:56.272Z,4.26
2019-05-05T00:03:56.261Z,4.23
2019-05-05T00:04:56.256Z,4.26
2019-05-05T00:05:56.238Z,4.31
2019-05-05T00:06:56.248Z,4.30
2019-05-05T00:07:56.231Z,4.24
2019-05-05T00:08:56.204Z,4.34
2019-05-05T00:09:56.208Z,4.26
2019-05-05T00:10:56.955Z,4.41
2019-05-05T00:11:56.192Z,4.35
2019-05-05T00:12:56.164Z,4.41
2019-05-05T00:13:56.154Z,4.39
2019-05-05T00:14:56.164Z,4.41
2019-05-05T00:15:56.130Z,4.42
2019-05-05T00:16:56.138Z,4.41
2019-05-05T00:17:56.108Z,4.41
2019-05-05T00:18:56.094Z,4.42
2019-05-05T00:19:56.092Z,4.43
2019-05-05T00:20:56.074Z,4.41
2019-05-05T00:21:56.081Z,4.46
2019-05-05T00:22:56.055Z,4.39
2019-05-05T00:23:56.045Z,4.43
2019-05-05T00:24:56.028Z,4.39
2019-05-05T00:25:56.016Z,4.38
2019-05-05T00:26:56.029Z,4.41
2019-05-05T00:27:55.995Z,4.42
2019-05-05T00:28:55.988Z,4.45
2019-05-05T00:29:55.972Z,4.39
2019-05-05T00:30:55.970Z,4.43
2019-05-05T00:31:55.970Z,4.45
2019-05-05T00:32:55.940Z,4.51
2019-05-05T00:33:55.948Z,4.53
2019-05-05T00:34:55.920Z,4.57
2019-05-05T00:35:55.913Z,4.64
2019-05-05T00:36:55.917Z,4.60
2019-05-05T00:37:55.888Z,4.54
2019-05-05T00:38:55.874Z,4.54
2019-05-05T00:39:55.866Z,4.57
2019-05-05T00:40:55.857Z,4.60
2019-05-05T00:41:55.861Z,4.61
2019-05-05T00:42:55.831Z,4.64
2019-05-05T00:43:55.820Z,4.60
2019-05-05T00:44:55.807Z,4.61
2019-05-05T00:45:55.826Z,4.54
2019-05-05T00:46:55.811Z,4.60
2019-05-05T00:47:55.783Z,4.59
2019-05-05T00:48:55.764Z,4.56
2019-05-05T00:49:56.416Z,4.49
2019-05-05T00:50:55.766Z,4.45
2019-05-05T00:51:55.754Z,4.38
2019-05-05T00:52:55.733Z,4.34
2019-05-05T00:53:55.714Z,4.23
2019-05-05T00:54:55.773Z,4.28
2019-05-05T00:55:55.688Z,4.27
2019-05-05T00:56:55.695Z,4.35
2019-05-05T00:57:55.673Z,4.27
2019-05-05T00:58:55.654Z,4.17
2019-05-05T00:59:55.644Z,4.21
2019-05-05T01:00:55.636Z,4.26
2019-05-05T01:01:55.642Z,4.28
2019-05-05T01:02:55.648Z,4.26
2019-05-05T01:03:55.599Z,4.26
2019-05-05T01:04:55.588Z,4.26
2019-05-05T01:05:55.580Z,4.17
2019-05-05T01:06:55.607Z,4.24
2019-05-05T01:07:55.554Z,4.26
2019-05-05T01:08:55.544Z,4.18
2019-05-05T01:09:55.532Z,4.17
2019-05-05T01:10:55.530Z,4.24
2019-05-05T01:11:55.532Z,4.17
2019-05-05T01:12:55.500Z,4.18
2019-05-05T01:13:55.490Z,4.12
2019-05-05T01:14:55.480Z,4.17
2019-05-05T01:15:55.471Z,4.17
2019-05-05T01:16:55.520Z,4.21
2019-05-05T01:17:55.455Z,4.13
2019-05-05T01:18:55.538Z,4.18
2019-05-05T01:20:03.147Z,4.20
2019-05-05T01:20:55.415Z,4.21
2019-05-05T01:21:55.422Z,4.24
2019-05-05T01:22:55.490Z,4.21
2019-05-05T01:23:55.384Z,4.18
2019-05-05T01:24:55.622Z,4.13
2019-05-05T01:25:55.358Z,4.10
2019-05-05T01:26:55.367Z,4.17
2019-05-05T01:27:55.335Z,4.09
2019-05-05T01:28:56.298Z,4.06
2019-05-05T01:29:55.380Z,4.10
2019-05-05T01:30:55.306Z,4.08
2019-05-05T01:31:55.311Z,3.99
2019-05-05T01:32:56.076Z,4.05
2019-05-05T01:33:55.269Z,3.94
2019-05-05T01:34:55.262Z,3.92
2019-05-05T01:35:55.319Z,3.98
2019-05-05T01:36:55.269Z,3.92
2019-05-05T01:37:55.224Z,3.87
2019-05-05T01:38:55.342Z,3.90
2019-05-05T01:39:55.204Z,3.91
2019-05-05T01:40:55.244Z,4.00
2019-05-05T01:41:55.182Z,3.92
2019-05-05T01:42:55.200Z,3.98
2019-05-05T01:43:55.160Z,4.00
2019-05-05T01:44:55.354Z,3.88
2019-05-05T01:45:55.144Z,3.91
2019-05-05T01:46:55.218Z,3.94
2019-05-05T01:47:55.154Z,3.92
2019-05-05T01:48:55.107Z,3.96
2019-05-05T01:49:55.095Z,3.84
2019-05-05T01:50:55.093Z,3.78
2019-05-05T01:51:55.387Z,3.78
2019-05-05T01:52:55.612Z,3.74
2019-05-05T01:53:55.057Z,3.59
2019-05-05T01:54:55.037Z,3.62
2019-05-05T01:55:55.033Z,3.60
2019-05-05T01:56:55.523Z,3.55
2019-05-05T01:57:55.045Z,3.64
2019-05-05T01:58:54.996Z,3.59
2019-05-05T01:59:55.359Z,3.55
2019-05-05T02:00:54.985Z,3.62
2019-05-05T02:01:55.205Z,3.63
2019-05-05T02:02:55.426Z,3.64
2019-05-05T02:03:55.050Z,3.70
2019-05-05T02:04:55.492Z,3.72
2019-05-05T02:05:54.987Z,3.78
2019-05-05T02:06:55.166Z,3.81
2019-05-05T02:07:55.321Z,3.81
2019-05-05T02:08:55.043Z,3.82
2019-05-05T02:09:55.464Z,3.94
2019-05-05T02:10:54.936Z,3.85
2019-05-05T02:11:54.989Z,3.92
2019-05-05T02:12:55.191Z,4.00
2019-05-05T02:13:54.830Z,3.96
2019-05-05T02:14:55.242Z,3.91
2019-05-05T02:15:55.312Z,3.91
2019-05-05T02:16:54.904Z,3.96
2019-05-05T02:17:55.136Z,4.00
2019-05-05T02:18:54.785Z,3.92
2019-05-05T02:19:55.095Z,3.98
2019-05-05T02:20:54.752Z,3.92
2019-05-05T02:21:54.980Z,3.85
2019-05-05T02:22:55.259Z,3.78
2019-05-05T02:23:54.956Z,3.87
2019-05-05T02:24:55.217Z,3.80
2019-05-05T02:25:55.331Z,3.81
2019-05-05T02:26:54.854Z,3.82
2019-05-05T02:27:54.881Z,3.85
2019-05-05T02:28:54.669Z,3.76
2019-05-05T02:29:54.925Z,3.87
2019-05-05T02:30:55.145Z,3.82
2019-05-05T02:31:55.341Z,3.76
2019-05-05T02:32:55.520Z,3.76
2019-05-05T02:33:56.864Z,3.78
2019-05-05T02:34:56.229Z,3.64
2019-05-05T02:35:55.625Z,3.66
2019-05-05T02:36:56.539Z,3.69
2019-05-05T02:37:55.872Z,3.63
2019-05-05T02:38:56.767Z,3.62
2019-05-05T02:39:58.900Z,3.56
2019-05-05T02:40:55.533Z,3.62
2019-05-05T02:41:54.847Z,3.60
2019-05-05T02:42:55.021Z,3.54
2019-05-05T02:43:55.765Z,3.49
2019-05-05T02:44:54.559Z,3.59
2019-05-05T02:45:55.315Z,3.51
2019-05-05T02:46:55.202Z,3.54
2019-05-05T02:47:55.067Z,3.55
2019-05-05T02:48:55.279Z,3.46
2019-05-05T02:49:54.991Z,3.42
2019-05-05T02:51:00.705Z,3.44
2019-05-05T02:51:55.254Z,3.35
2019-05-05T02:52:54.458Z,3.32
2019-05-05T02:53:54.401Z,3.37
2019-05-05T02:54:54.377Z,3.49
2019-05-05T02:55:54.371Z,3.36
2019-05-05T02:56:54.357Z,3.37
2019-05-05T02:57:54.485Z,3.25
2019-05-05T02:58:54.338Z,3.15
2019-05-05T02:59:54.328Z,3.27
2019-05-05T03:00:54.335Z,3.26
2019-05-05T03:01:54.307Z,3.30
2019-05-05T03:02:54.300Z,3.20
2019-05-05T03:03:54.421Z,3.22
2019-05-05T03:04:54.267Z,3.22
2019-05-05T03:05:54.257Z,3.25
2019-05-05T03:06:54.342Z,3.18
2019-05-05T03:07:54.402Z,3.15
2019-05-05T03:08:54.399Z,3.11
2019-05-05T03:09:54.582Z,3.12
2019-05-05T03:10:54.200Z,3.15
2019-05-05T03:11:54.249Z,3.07
2019-05-05T03:12:54.467Z,3.05
2019-05-05T03:13:54.190Z,3.08
2019-05-05T03:14:54.172Z,3.02
2019-05-05T03:15:55.009Z,3.09
2019-05-05T03:16:54.272Z,3.09
2019-05-05T03:17:54.127Z,3.12
2019-05-05T03:18:54.549Z,3.08
2019-05-05T03:19:54.102Z,3.05
2019-05-05T03:21:03.880Z,2.96
2019-05-05T03:21:55.085Z,2.89
2019-05-05T03:22:54.074Z,2.89
2019-05-05T03:23:54.751Z,2.96
2019-05-05T03:24:54.256Z,2.97
2019-05-05T03:25:54.644Z,2.87
2019-05-05T03:26:54.025Z,2.90
2019-05-05T03:27:54.019Z,2.97
2019-05-05T03:28:54.497Z,3.04
2019-05-05T03:29:54.009Z,3.02
2019-05-05T03:30:55.804Z,3.11
2019-05-05T03:31:56.257Z,3.07
2019-05-05T03:32:55.925Z,3.08
2019-05-05T03:33:54.875Z,3.12
2019-05-05T03:34:53.941Z,3.17
2019-05-05T03:35:54.239Z,3.14
2019-05-05T03:36:53.925Z,3.25
2019-05-05T03:37:54.505Z,3.27
2019-05-05T03:38:53.915Z,3.22
2019-05-05T03:39:53.896Z,3.22
2019-05-05T03:40:54.223Z,3.30
2019-05-05T03:41:54.364Z,3.17
2019-05-05T03:42:53.855Z,3.22
2019-05-05T03:43:56.919Z,3.30
2019-05-05T03:44:54.489Z,3.22
2019-05-05T03:45:53.953Z,3.22
2019-05-05T03:46:54.337Z,3.26
2019-05-05T03:47:54.176Z,3.32
2019-05-05T03:48:54.207Z,3.36
2019-05-05T03:49:53.785Z,3.32
2019-05-05T03:50:54.092Z,3.41
2019-05-05T03:51:54.360Z,3.36
2019-05-05T03:52:54.442Z,3.37
2019-05-05T03:53:53.755Z,3.26
2019-05-05T03:54:54.274Z,3.42
2019-05-05T03:55:54.525Z,3.46
2019-05-05T03:56:54.453Z,3.42
2019-05-05T03:57:53.859Z,3.44
2019-05-05T03:58:54.233Z,3.44
2019-05-05T03:59:54.782Z,3.45
2019-05-05T04:00:54.905Z,3.45
2019-05-05T04:01:54.538Z,3.49
2019-05-05T04:02:53.910Z,3.44
2019-05-05T04:03:54.167Z,3.42
2019-05-05T04:04:54.961Z,3.29
2019-05-05T04:05:53.839Z,3.42
2019-05-05T04:06:54.071Z,3.51
2019-05-05T04:07:54.553Z,3.52
2019-05-05T04:08:53.817Z,3.48
2019-05-05T04:09:54.269Z,3.55
2019-05-05T04:10:54.608Z,3.51
2019-05-05T04:11:53.937Z,3.51
2019-05-05T04:12:53.996Z,3.54
2019-05-05T04:13:54.255Z,3.48
2019-05-05T04:14:54.610Z,3.41
2019-05-05T04:15:53.542Z,3.48
2019-05-05T04:16:54.039Z,3.59
2019-05-05T04:17:53.682Z,3.55
2019-05-05T04:18:54.237Z,3.55
2019-05-05T04:19:54.183Z,3.52
2019-05-05T04:20:53.557Z,3.64
2019-05-05T04:21:53.694Z,3.59
2019-05-05T04:22:54.239Z,3.63
2019-05-05T04:23:53.611Z,3.64
2019-05-05T04:24:54.140Z,3.63
2019-05-05T04:25:54.459Z,3.72
2019-05-05T04:26:54.604Z,3.73
2019-05-05T04:27:53.917Z,3.67
2019-05-05T04:28:54.112Z,3.72
2019-05-05T04:29:54.488Z,3.81
2019-05-05T04:30:53.743Z,3.76
2019-05-05T04:31:54.007Z,3.81
2019-05-05T04:32:54.573Z,3.76
2019-05-05T04:33:53.907Z,3.78
2019-05-05T04:34:54.283Z,3.84
2019-05-05T04:35:54.535Z,3.85
2019-05-05T04:36:54.679Z,3.84
2019-05-05T04:37:54.234Z,3.91
2019-05-05T04:38:54.583Z,3.88
2019-05-05T04:39:53.854Z,3.88
2019-05-05T04:40:54.158Z,3.94
2019-05-05T04:41:54.548Z,3.88
2019-05-05T04:42:54.714Z,3.85
2019-05-05T04:43:54.703Z,3.91
2019-05-05T04:44:53.826Z,3.90
2019-05-05T04:45:54.094Z,3.88
2019-05-05T04:46:54.564Z,3.96
2019-05-05T04:47:53.952Z,3.91
2019-05-05T04:48:54.397Z,4.00
2019-05-05T04:49:53.833Z,4.00
2019-05-05T04:50:54.408Z,4.00
2019-05-05T04:51:53.907Z,4.10
2019-05-05T04:52:54.048Z,4.12
2019-05-05T04:53:54.334Z,4.12
2019-05-05T04:54:53.098Z,4.16
2019-05-05T04:55:53.565Z,4.23
2019-05-05T04:56:54.011Z,4.30
2019-05-05T04:57:54.073Z,4.26
2019-05-05T04:58:54.439Z,4.28
2019-05-05T04:59:54.040Z,4.30
2019-05-05T05:00:54.643Z,4.30
2019-05-05T05:01:54.622Z,4.27
2019-05-05T05:02:53.901Z,4.30
2019-05-05T05:03:54.295Z,4.30
2019-05-05T05:04:53.554Z,4.23
2019-05-05T05:05:53.589Z,4.36
2019-05-05T05:06:54.214Z,4.31
2019-05-05T05:07:54.314Z,4.36
2019-05-05T05:08:53.585Z,4.43
2019-05-05T05:09:54.040Z,4.38
2019-05-05T05:10:54.293Z,4.39
2019-05-05T05:11:54.709Z,4.42
2019-05-05T05:12:53.982Z,4.42
2019-05-05T05:13:54.468Z,4.43
2019-05-05T05:14:54.623Z,4.46
2019-05-05T05:15:53.988Z,4.56
2019-05-05T05:16:54.166Z,4.56
2019-05-05T05:17:53.521Z,4.60
2019-05-05T05:18:53.794Z,4.60
2019-05-05T05:19:54.254Z,4.59
2019-05-05T05:20:54.818Z,4.54
2019-05-05T05:22:01.162Z,4.69
2019-05-05T05:22:54.408Z,4.71
2019-05-05T05:23:53.648Z,4.72
2019-05-05T05:24:54.131Z,4.67
2019-05-05T05:25:54.434Z,4.67
2019-05-05T05:26:52.707Z,4.74
2019-05-05T05:27:53.654Z,4.83
2019-05-05T05:28:53.888Z,4.69
2019-05-05T05:29:54.413Z,4.77
2019-05-05T05:30:54.560Z,4.66
2019-05-05T05:31:53.529Z,4.71
2019-05-05T05:32:53.908Z,4.64
2019-05-05T05:33:54.800Z,4.71
2019-05-05T05:34:54.235Z,4.67
2019-05-05T05:35:54.479Z,4.77
2019-05-05T05:36:53.617Z,4.78
2019-05-05T05:37:53.995Z,4.83
2019-05-05T05:38:54.179Z,4.72
2019-05-05T05:39:54.455Z,4.78
2019-05-05T05:40:53.621Z,4.71
2019-05-05T05:41:54.092Z,4.85
2019-05-05T05:42:54.224Z,4.97
2019-05-05T05:43:54.128Z,4.98
2019-05-05T05:44:53.531Z,4.96
2019-05-05T05:45:54.198Z,5.01
2019-05-05T05:46:54.476Z,4.98
2019-05-05T05:47:53.664Z,5.00
2019-05-05T05:48:53.937Z,5.01
2019-05-05T05:49:54.417Z,5.00
2019-05-05T05:50:53.700Z,4.97
2019-05-05T05:51:53.828Z,5.07
2019-05-05T05:52:54.064Z,5.00
2019-05-05T05:53:54.285Z,5.03
2019-05-05T05:54:53.490Z,5.06
2019-05-05T05:55:53.768Z,5.04
2019-05-05T05:56:53.853Z,5.06
2019-05-05T05:57:54.155Z,5.06
2019-05-05T05:58:54.185Z,5.11
2019-05-05T05:59:52.343Z,5.16
2019-05-05T06:00:53.967Z,5.15
2019-05-05T06:02:06.113Z,5.27
2019-05-05T06:02:54.421Z,5.30
2019-05-05T06:03:53.608Z,5.33
2019-05-05T06:04:53.894Z,5.36
2019-05-05T06:05:54.057Z,5.39
2019-05-05T06:06:54.244Z,5.43
2019-05-05T06:07:54.244Z,5.43
2019-05-05T06:08:54.281Z,5.55
2019-05-05T06:09:54.025Z,5.52
2019-05-05T06:10:54.527Z,5.52
2019-05-05T06:11:54.074Z,5.54
2019-05-05T06:12:54.130Z,5.62
2019-05-05T06:13:52.188Z,5.59
2019-05-05T06:14:53.687Z,5.54
2019-05-05T06:15:53.578Z,5.54
2019-05-05T06:16:53.967Z,5.59
2019-05-05T06:17:53.924Z,5.61
2019-05-05T06:18:54.152Z,5.67
2019-05-05T06:19:53.485Z,5.69
2019-05-05T06:20:53.721Z,5.72
2019-05-05T06:21:54.139Z,5.73
2019-05-05T06:22:53.521Z,5.67
2019-05-05T06:23:53.784Z,5.72
2019-05-05T06:24:53.974Z,5.77
2019-05-05T06:25:52.079Z,5.75
2019-05-05T06:26:52.038Z,5.84
2019-05-05T06:27:54.101Z,5.82
2019-05-05T06:28:53.965Z,5.82
2019-05-05T06:29:54.112Z,5.82
2019-05-05T06:30:52.032Z,5.82
2019-05-05T06:31:53.828Z,5.84
2019-05-05T06:32:54.189Z,5.84
2019-05-05T06:33:51.956Z,5.88
2019-05-05T06:34:53.447Z,5.94
2019-05-05T06:35:53.561Z,5.98
2019-05-05T06:36:53.789Z,6.03
2019-05-05T06:37:53.971Z,5.95
2019-05-05T06:38:54.029Z,6.03
2019-05-05T06:39:51.887Z,6.00
2019-05-05T06:40:53.689Z,6.06
2019-05-05T06:41:53.796Z,6.11
2019-05-05T06:42:53.892Z,6.05
2019-05-05T06:43:51.852Z,6.19
2019-05-05T06:44:53.533Z,6.16
2019-05-05T06:45:53.571Z,6.25
2019-05-05T06:46:53.602Z,6.35
2019-05-05T06:47:53.648Z,6.35
2019-05-05T06:48:53.748Z,6.42
2019-05-05T06:49:51.775Z,6.46
2019-05-05T06:50:51.789Z,6.46
2019-05-05T06:51:51.758Z,6.47
2019-05-05T06:52:53.581Z,6.46
2019-05-05T06:53:53.866Z,6.49
2019-05-05T06:54:51.719Z,6.52
2019-05-05T06:55:52.452Z,6.52
2019-05-05T06:56:53.724Z,6.49
2019-05-05T06:57:53.757Z,6.47
2019-05-05T06:58:53.895Z,6.50
2019-05-05T06:59:51.663Z,6.52
2019-05-05T07:00:51.671Z,6.55
2019-05-05T07:01:53.473Z,6.53
2019-05-05T07:02:53.921Z,6.55
2019-05-05T07:03:51.620Z,6.64
2019-05-05T07:04:51.606Z,6.67
2019-05-05T07:05:53.785Z,6.68
2019-05-05T07:06:56.158Z,6.61
2019-05-05T07:07:53.738Z,6.73
2019-05-05T07:08:51.565Z,6.79
2019-05-05T07:09:51.551Z,6.85
2019-05-05T07:10:51.571Z,6.83
2019-05-05T07:11:51.528Z,6.92
2019-05-05T07:12:51.519Z,6.91
2019-05-05T07:13:53.541Z,6.99
2019-05-05T07:14:53.649Z,7.07
2019-05-05T07:15:51.486Z,7.04
2019-05-05T07:16:51.523Z,7.04
2019-05-05T07:17:53.488Z,7.11
2019-05-05T07:18:53.774Z,7.16
2019-05-05T07:19:51.443Z,7.19
2019-05-05T07:20:51.438Z,7.31
2019-05-05T07:21:53.612Z,7.22
2019-05-05T07:23:01.497Z,7.33
2019-05-05T07:23:53.702Z,7.37
2019-05-05T07:24:51.383Z,7.40
2019-05-05T07:25:51.376Z,7.39
2019-05-05T07:26:51.380Z,7.37
2019-05-05T07:27:51.358Z,7.40
2019-05-05T07:28:51.351Z,7.42
2019-05-05T07:29:51.329Z,7.39
2019-05-05T07:30:51.368Z,7.39
2019-05-05T07:31:51.354Z,7.34
2019-05-05T07:32:53.598Z,7.40
2019-05-05T07:33:51.286Z,7.44
2019-05-05T07:34:51.289Z,7.44
2019-05-05T07:35:56.743Z,7.39
2019-05-05T07:36:51.281Z,7.44
2019-05-05T07:37:51.249Z,7.42
2019-05-05T07:38:51.228Z,7.39
2019-05-05T07:39:51.214Z,7.43
2019-05-05T07:40:51.203Z,7.42
2019-05-05T07:41:51.250Z,7.42
2019-05-05T07:42:51.180Z,7.46
2019-05-05T07:43:51.200Z,7.39
2019-05-05T07:44:51.159Z,7.42
2019-05-05T07:45:51.147Z,7.40
2019-05-05T07:46:51.159Z,7.34
2019-05-05T07:47:51.125Z,7.39
2019-05-05T07:48:51.113Z,7.39
2019-05-05T07:49:51.103Z,7.33
2019-05-05T07:50:59.774Z,7.24
2019-05-05T07:51:51.134Z,7.29
2019-05-05T07:52:51.069Z,7.29
2019-05-05T07:53:51.238Z,7.31
2019-05-05T07:54:51.269Z,7.36
2019-05-05T07:55:51.040Z,7.28
2019-05-05T07:56:51.043Z,7.26
2019-05-05T07:57:51.012Z,7.31
2019-05-05T07:58:51.000Z,7.29
2019-05-05T07:59:51.001Z,7.19
2019-05-05T08:00:50.982Z,7.18
2019-05-05T08:01:50.991Z,7.11
2019-05-05T08:02:50.959Z,7.13
2019-05-05T08:03:50.945Z,7.15
2019-05-05T08:04:50.934Z,7.13
2019-05-05T08:05:50.927Z,7.10
2019-05-05T08:06:50.935Z,7.08
2019-05-05T08:07:50.908Z,7.08
2019-05-05T08:08:50.892Z,7.07
2019-05-05T08:09:50.878Z,7.10
2019-05-05T08:10:50.868Z,7.10
2019-05-05T08:11:50.877Z,7.15
2019-05-05T08:12:50.860Z,7.15
2019-05-05T08:13:50.834Z,7.18
2019-05-05T08:14:50.823Z,7.18
2019-05-05T08:15:59.178Z,7.28
2019-05-05T08:16:50.823Z,7.28
2019-05-05T08:17:50.794Z,7.33
2019-05-05T08:18:50.983Z,7.39
2019-05-05T08:19:50.769Z,7.37
2019-05-05T08:20:50.758Z,7.50
2019-05-05T08:21:50.765Z,7.47
2019-05-05T08:22:50.738Z,7.54
2019-05-05T08:23:50.729Z,7.57
2019-05-05T08:24:50.712Z,7.62
2019-05-05T08:25:50.702Z,7.58
2019-05-05T08:26:50.765Z,7.76
2019-05-05T08:27:50.921Z,7.77
2019-05-05T08:28:50.665Z,7.84
2019-05-05T08:29:50.654Z,7.87
2019-05-05T08:30:50.675Z,7.84
2019-05-05T08:31:50.668Z,7.96
2019-05-05T08:32:50.620Z,8.02
2019-05-05T08:33:50.610Z,8.17
2019-05-05T08:34:59.775Z,8.24
2019-05-05T08:35:50.590Z,8.24
2019-05-05T08:36:50.579Z,8.42
2019-05-05T08:37:50.585Z,8.52
2019-05-05T08:38:50.561Z,8.59
2019-05-05T08:39:50.543Z,8.65
2019-05-05T08:40:50.565Z,8.70
2019-05-05T08:41:50.523Z,8.71
2019-05-05T08:42:50.531Z,8.80
2019-05-05T08:43:50.502Z,8.99
2019-05-05T08:44:50.543Z,9.01
2019-05-05T08:45:50.482Z,9.01
2019-05-05T08:46:50.486Z,9.01
2019-05-05T08:47:50.473Z,9.08
2019-05-05T08:48:50.443Z,9.16
2019-05-05T08:49:50.432Z,9.15
2019-05-05T08:50:50.421Z,9.23
2019-05-05T08:51:50.414Z,9.33
2019-05-05T08:52:50.418Z,9.33
2019-05-05T08:53:50.454Z,9.34
2019-05-05T08:54:50.379Z,9.34
2019-05-05T08:55:50.365Z,9.33
2019-05-05T08:56:50.354Z,9.44
2019-05-05T08:57:50.367Z,9.47
2019-05-05T08:58:50.348Z,9.44
2019-05-05T08:59:50.320Z,9.51
2019-05-05T09:00:50.309Z,9.48
2019-05-05T09:01:50.576Z,9.42
2019-05-05T09:02:50.309Z,9.47
2019-05-05T09:03:50.277Z,9.47
2019-05-05T09:04:50.265Z,9.52
2019-05-05T09:05:50.265Z,9.70
2019-05-05T09:06:50.245Z,9.62
2019-05-05T09:07:50.290Z,9.67
2019-05-05T09:08:50.297Z,9.62
2019-05-05T09:09:50.209Z,9.63
2019-05-05T09:10:52.275Z,9.73
2019-05-05T09:11:50.281Z,9.75
2019-05-05T09:12:50.194Z,9.83
2019-05-05T09:13:50.166Z,9.83
2019-05-05T09:14:50.153Z,9.85
2019-05-05T09:15:50.143Z,9.72
2019-05-05T09:16:50.133Z,9.73
2019-05-05T09:17:50.139Z,9.67
2019-05-05T09:18:50.111Z,9.67
2019-05-05T09:19:50.127Z,9.73
2019-05-05T09:20:50.086Z,9.73
2019-05-05T09:21:50.074Z,9.73
2019-05-05T09:22:50.091Z,9.78
2019-05-05T09:23:59.987Z,9.77
2019-05-05T09:24:51.043Z,9.81
2019-05-05T09:25:50.030Z,9.87
2019-05-05T09:26:50.029Z,9.91
2019-05-05T09:27:50.056Z,10.03
2019-05-05T09:28:50.192Z,10.03
2019-05-05T09:29:49.996Z,10.10
2019-05-05T09:30:49.976Z,10.17
2019-05-05T09:31:49.962Z,10.16
2019-05-05T09:32:49.974Z,10.16
2019-05-05T09:33:49.942Z,10.23
2019-05-05T09:34:49.933Z,10.18
2019-05-05T09:35:49.921Z,10.24
2019-05-05T09:36:49.909Z,10.16
2019-05-05T09:37:49.918Z,10.35
2019-05-05T09:38:49.889Z,10.58
2019-05-05T09:39:49.880Z,10.64
2019-05-05T09:40:49.866Z,10.67
2019-05-05T09:41:49.857Z,10.86
2019-05-05T09:42:49.862Z,10.85
2019-05-05T09:43:49.830Z,11.08
2019-05-05T09:44:49.820Z,11.15
2019-05-05T09:45:49.812Z,11.19
2019-05-05T09:46:49.865Z,11.19
2019-05-05T09:47:49.808Z,11.34
2019-05-05T09:48:49.775Z,11.48
2019-05-05T09:49:49.771Z,11.45
2019-05-05T09:50:49.755Z,11.34
2019-05-05T09:51:49.742Z,11.34
2019-05-05T09:52:49.762Z,11.25
2019-05-05T09:53:49.717Z,11.37
2019-05-05T09:54:49.715Z,11.40
2019-05-05T09:55:49.726Z,11.37
2019-05-05T09:56:49.689Z,11.38
2019-05-05T09:57:49.674Z,11.33
2019-05-05T09:58:49.682Z,11.27
2019-05-05T09:59:49.650Z,11.28
2019-05-05T10:00:49.646Z,11.36
2019-05-05T10:01:49.727Z,11.43
2019-05-05T10:02:50.096Z,11.54
2019-05-05T10:03:49.667Z,11.71
2019-05-05T10:04:49.596Z,11.77
2019-05-05T10:05:49.585Z,12.04
2019-05-05T10:06:49.585Z,12.14
2019-05-05T10:07:49.562Z,12.22
2019-05-05T10:08:49.577Z,12.22
2019-05-05T10:09:49.539Z,12.25
2019-05-05T10:10:49.529Z,12.29
2019-05-05T10:11:49.516Z,12.41
2019-05-05T10:12:52.243Z,12.48
2019-05-05T10:13:49.514Z,12.59
2019-05-05T10:14:49.482Z,12.68
2019-05-05T10:15:49.473Z,12.71
2019-05-05T10:16:49.461Z,12.76
2019-05-05T10:17:49.453Z,12.65
2019-05-05T10:18:49.460Z,12.68
2019-05-05T10:19:49.427Z,12.58
2019-05-05T10:20:49.418Z,12.55
2019-05-05T10:21:49.404Z,12.51
2019-05-05T10:22:49.396Z,12.51
2019-05-05T10:23:49.414Z,12.54
2019-05-05T10:24:49.378Z,12.59
2019-05-05T10:25:49.369Z,12.40
2019-05-05T10:26:49.652Z,12.43
2019-05-05T10:27:49.337Z,12.36
2019-05-05T10:28:49.346Z,12.40
2019-05-05T10:29:49.314Z,12.47
2019-05-05T10:30:49.305Z,12.55
2019-05-05T10:31:49.292Z,12.53
2019-05-05T10:32:49.284Z,12.59
2019-05-05T10:33:49.295Z,12.54
2019-05-05T10:34:49.263Z,12.65
2019-05-05T10:35:49.375Z,12.61
2019-05-05T10:36:49.235Z,12.66
2019-05-05T10:37:49.225Z,12.71
2019-05-05T10:38:49.235Z,12.80
2019-05-05T10:39:49.203Z,12.77
2019-05-05T10:40:49.191Z,12.77
2019-05-05T10:41:49.181Z,12.65
2019-05-05T10:42:49.170Z,12.59
2019-05-05T10:43:49.182Z,12.68
2019-05-05T10:44:49.150Z,12.58
2019-05-05T10:45:49.137Z,12.59
2019-05-05T10:46:49.124Z,12.59
2019-05-05T10:47:49.113Z,12.44
2019-05-05T10:48:49.126Z,12.40
2019-05-05T10:49:49.090Z,12.33
2019-05-05T10:50:49.079Z,12.46
2019-05-05T10:51:49.068Z,12.44
2019-05-05T10:52:49.083Z,12.35
2019-05-05T10:53:49.068Z,12.30
2019-05-05T10:54:49.034Z,12.30
2019-05-05T10:55:49.022Z,12.32
2019-05-05T10:56:49.013Z,12.25
2019-05-05T10:57:49.002Z,12.18
2019-05-05T10:58:49.012Z,12.15
2019-05-05T10:59:48.983Z,12.18
2019-05-05T11:00:48.968Z,12.23
2019-05-05T11:01:48.956Z,12.26
2019-05-05T11:02:48.962Z,12.17
2019-05-05T11:03:48.970Z,12.18
2019-05-05T11:04:48.922Z,12.04
2019-05-05T11:05:48.912Z,11.97
2019-05-05T11:06:48.902Z,11.95
2019-05-05T11:07:48.906Z,11.95
2019-05-05T11:08:48.900Z,11.96
2019-05-05T11:09:48.868Z,12.00
2019-05-05T11:10:48.872Z,11.80
2019-05-05T11:11:48.856Z,11.79
2019-05-05T11:12:48.853Z,11.62
2019-05-05T11:13:48.865Z,11.46
2019-05-05T11:14:48.810Z,11.43
2019-05-05T11:15:48.802Z,11.34
2019-05-05T11:16:48.788Z,11.27
2019-05-05T11:17:48.777Z,11.33
2019-05-05T11:18:48.794Z,11.28
2019-05-05T11:19:50.217Z,11.28
2019-05-05T11:20:48.745Z,11.33
2019-05-05T11:21:48.734Z,11.27
2019-05-05T11:22:48.721Z,11.41
2019-05-05T11:23:48.753Z,11.48
2019-05-05T11:24:59.959Z,11.51
2019-05-05T11:25:48.831Z,11.62
2019-05-05T11:26:48.717Z,11.87
2019-05-05T11:27:48.672Z,11.77
2019-05-05T11:28:48.655Z,11.91
2019-05-05T11:29:48.665Z,12.04
2019-05-05T11:30:48.633Z,12.13
2019-05-05T11:31:48.629Z,12.26
2019-05-05T11:32:48.609Z,12.55
2019-05-05T11:33:48.601Z,12.72
2019-05-05T11:34:48.610Z,12.83
2019-05-05T11:35:48.788Z,12.90
2019-05-05T11:36:48.569Z,12.90
2019-05-05T11:37:48.553Z,12.83
2019-05-05T11:38:48.543Z,12.96
2019-05-05T11:39:48.552Z,13.01
2019-05-05T11:40:48.519Z,12.84
2019-05-05T11:41:48.511Z,12.59
2019-05-05T11:42:48.552Z,12.47
2019-05-05T11:43:48.489Z,12.25
2019-05-05T11:44:48.504Z,12.10
2019-05-05T11:45:48.465Z,12.05
2019-05-05T11:46:48.454Z,12.03
2019-05-05T11:47:48.445Z,11.82
2019-05-05T11:48:48.430Z,11.77
2019-05-05T11:49:48.438Z,11.84
2019-05-05T11:50:48.407Z,11.84
2019-05-05T11:51:48.396Z,11.79
2019-05-05T11:52:48.385Z,11.82
2019-05-05T11:53:48.374Z,11.58
2019-05-05T11:54:48.382Z,11.69
2019-05-05T11:55:48.353Z,11.62
2019-05-05T11:56:48.341Z,11.45
2019-05-05T11:57:48.335Z,11.37
2019-05-05T11:58:48.318Z,11.34
2019-05-05T11:59:48.327Z,11.20
2019-05-05T12:00:48.298Z,11.27
2019-05-05T12:01:48.299Z,11.20
2019-05-05T12:02:48.279Z,11.20
2019-05-05T12:03:48.469Z,11.16
2019-05-05T12:04:48.275Z,11.09
2019-05-05T12:05:48.241Z,11.08
2019-05-05T12:06:48.293Z,11.05
2019-05-05T12:07:48.220Z,11.05
2019-05-05T12:08:48.207Z,11.04
2019-05-05T12:09:48.218Z,11.15
2019-05-05T12:10:48.184Z,11.13
2019-05-05T12:11:48.173Z,11.18
2019-05-05T12:12:48.162Z,11.22
2019-05-05T12:13:48.153Z,11.13
2019-05-05T12:14:48.193Z,11.23
2019-05-05T12:15:48.129Z,11.30
2019-05-05T12:16:48.116Z,11.31
2019-05-05T12:17:48.109Z,11.43
2019-05-05T12:18:48.124Z,11.40
2019-05-05T12:19:48.578Z,11.48
2019-05-05T12:20:48.079Z,11.64
2019-05-05T12:21:48.064Z,11.99
2019-05-05T12:22:48.149Z,12.36
2019-05-05T12:23:48.042Z,12.84
2019-05-05T12:24:48.049Z,13.29
2019-05-05T12:25:48.022Z,13.72
2019-05-05T12:26:48.008Z,14.01
2019-05-05T12:27:47.995Z,14.12
2019-05-05T12:28:47.984Z,14.11
2019-05-05T12:29:48.014Z,14.19
2019-05-05T12:30:47.967Z,14.30
2019-05-05T12:31:47.972Z,14.27
2019-05-05T12:32:47.939Z,14.12
2019-05-05T12:33:47.933Z,14.04
2019-05-05T12:34:47.955Z,14.00
2019-05-05T12:35:47.951Z,13.90
2019-05-05T12:36:47.893Z,13.85
2019-05-05T12:37:47.888Z,13.80
2019-05-05T12:38:47.906Z,13.80
2019-05-05T12:39:47.883Z,13.96
2019-05-05T12:40:47.851Z,14.04
2019-05-05T12:41:47.838Z,13.96
2019-05-05T12:42:47.826Z,13.98
2019-05-05T12:43:47.821Z,14.21
2019-05-05T12:44:47.828Z,14.41
2019-05-05T12:45:47.795Z,14.69
2019-05-05T12:46:47.783Z,14.96
2019-05-05T12:47:47.778Z,15.14
2019-05-05T12:48:47.821Z,15.20
2019-05-05T12:49:47.802Z,15.51
2019-05-05T12:50:47.764Z,15.56
2019-05-05T12:51:47.740Z,15.38
2019-05-05T12:52:47.716Z,15.38
2019-05-05T12:53:47.714Z,15.73
2019-05-05T12:54:47.698Z,15.85
2019-05-05T12:55:47.704Z,15.84
2019-05-05T12:56:47.713Z,16.02
2019-05-05T12:57:47.669Z,16.18
2019-05-05T12:58:47.681Z,16.40
2019-05-05T12:59:47.650Z,16.59
2019-05-05T13:00:47.653Z,16.70
2019-05-05T13:01:47.618Z,16.83
2019-05-05T13:02:47.658Z,16.94
2019-05-05T13:03:47.599Z,17.13
2019-05-05T13:04:47.601Z,17.16
2019-05-05T13:05:47.595Z,17.20
2019-05-05T13:06:47.561Z,17.32
2019-05-05T13:07:47.549Z,17.30
2019-05-05T13:08:47.538Z,17.28
2019-05-05T13:09:47.562Z,17.41
2019-05-05T13:10:47.537Z,17.38